www.cux-wetter.de
Wetterdaten: Freitag, 07.06.2013
Datum Zeit Temp. A. Feuchte A. Luftdruck Regen Wind Richtung Richtung Sonnenschein Solar Taupunkt Windchill Windben
07.06.2013 00:00 16,1 C 74 % 1021,5 hPa 0,0 l/m 4,5 km/h (1 Bft) SO 135 0 min 0 W/m 11,5 C 16,1 C 4,5 km/h (1 Bft)
07.06.2013 00:15 16,0 C 73 % 1021,5 hPa 0,0 l/m 5,2 km/h (1 Bft) S-SO 150 0 min 0 W/m 11,2 C 16,0 C 5,2 km/h (1 Bft)
07.06.2013 00:30 15,8 C 73 % 1021,5 hPa 0,0 l/m 7,3 km/h (2 Bft) S 170 0 min 0 W/m 11,0 C 15,3 C 7,3 km/h (2 Bft)
07.06.2013 00:45 15,6 C 72 % 1021,5 hPa 0,0 l/m 10,2 km/h (2 Bft) S-SW 200 0 min 0 W/m 10,6 C 13,7 C 10,2 km/h (2 Bft)
07.06.2013 01:00 15,5 C 72 % 1021,5 hPa 0,0 l/m 10,1 km/h (2 Bft) S 190 0 min 0 W/m 10,5 C 13,6 C 10,1 km/h (2 Bft)
07.06.2013 01:15 15,3 C 71 % 1021,5 hPa 0,0 l/m 11,6 km/h (2 Bft) S 175 0 min 0 W/m 10,1 C 12,8 C 11,6 km/h (2 Bft)
07.06.2013 01:30 15,1 C 70 % 1021,5 hPa 0,0 l/m 12,5 km/h (2 Bft) S 170 0 min 0 W/m 9,7 C 12,2 C 12,5 km/h (2 Bft)
07.06.2013 01:45 15,0 C 70 % 1021,5 hPa 0,0 l/m 5,6 km/h (2 Bft) SO 135 0 min 0 W/m 9,6 C 15,0 C 5,6 km/h (2 Bft)
07.06.2013 02:00 14,9 C 70 % 1021,5 hPa 0,0 l/m 6,3 km/h (2 Bft) SO 145 0 min 0 W/m 9,5 C 14,9 C 6,3 km/h (2 Bft)
07.06.2013 02:15 14,6 C 70 % 1021,5 hPa 0,0 l/m 4,8 km/h (1 Bft) S-SO 165 0 min 0 W/m 9,2 C 14,6 C 4,8 km/h (1 Bft)
07.06.2013 02:30 14,4 C 70 % 1021,5 hPa 0,0 l/m 5,2 km/h (1 Bft) S 180 0 min 0 W/m 9,0 C 14,4 C 5,2 km/h (1 Bft)
07.06.2013 02:45 14,2 C 71 % 1021,5 hPa 0,0 l/m 6,1 km/h (2 Bft) S 185 0 min 0 W/m 9,0 C 14,2 C 6,1 km/h (2 Bft)
07.06.2013 03:00 14,3 C 72 % 1021,5 hPa 0,0 l/m 8,5 km/h (2 Bft) S 180 0 min 0 W/m 9,3 C 13,1 C 8,5 km/h (2 Bft)
07.06.2013 03:15 14,3 C 73 % 1021,5 hPa 0,0 l/m 6,6 km/h (2 Bft) S 170 0 min 0 W/m 9,5 C 14,2 C 6,6 km/h (2 Bft)
07.06.2013 03:30 14,2 C 74 % 1021,5 hPa 0,0 l/m 6,1 km/h (2 Bft) S 180 0 min 0 W/m 9,6 C 14,2 C 6,1 km/h (2 Bft)
07.06.2013 03:45 14,1 C 75 % 1021,5 hPa 0,0 l/m 3,4 km/h (1 Bft) S 170 0 min 0 W/m 9,7 C 14,1 C 3,4 km/h (1 Bft)
07.06.2013 04:00 13,9 C 75 % 1021,5 hPa 0,0 l/m 4,2 km/h (1 Bft) S-SO 165 0 min 0 W/m 9,5 C 13,9 C 4,2 km/h (1 Bft)
07.06.2013 04:15 13,8 C 76 % 1021,5 hPa 0,0 l/m 2,9 km/h (1 Bft) O-SO 115 0 min 0 W/m 9,6 C 13,8 C 2,9 km/h (1 Bft)
07.06.2013 04:30 13,7 C 76 % 1021,5 hPa 0,0 l/m 0,7 km/h (0 Bft) SO 125 0 min 0 W/m 9,5 C 13,7 C 0,7 km/h (0 Bft)
07.06.2013 04:45 13,6 C 76 % 1021,5 hPa 0,0 l/m 0,0 km/h (0 Bft) SO 125 0 min 0 W/m 9,4 C 13,6 C 0,0 km/h (0 Bft)
07.06.2013 05:00 13,4 C 76 % 1021,5 hPa 0,0 l/m 0,0 km/h (0 Bft) SO 125 0 min 0 W/m 9,3 C 13,4 C 0,0 km/h (0 Bft)
07.06.2013 05:15 13,3 C 76 % 1021,5 hPa 0,0 l/m 0,0 km/h (0 Bft) SO 125 0 min 0 W/m 9,2 C 13,3 C 0,0 km/h (0 Bft)
07.06.2013 05:30 13,0 C 76 % 1021,5 hPa 0,0 l/m 0,0 km/h (0 Bft) SO 125 0 min 0 W/m 8,9 C 13,0 C 0,0 km/h (0 Bft)
07.06.2013 05:45 13,0 C 77 % 1021,5 hPa 0,0 l/m 0,0 km/h (0 Bft) SO 125 0 min 0 W/m 9,1 C 13,0 C 0,0 km/h (0 Bft)
07.06.2013 06:00 12,9 C 78 % 1021,5 hPa 0,0 l/m 0,3 km/h (0 Bft) SO 125 0 min 0 W/m 9,2 C 12,9 C 0,3 km/h (0 Bft)
07.06.2013 06:15 13,2 C 79 % 1021,5 hPa 0,0 l/m 1,0 km/h (0 Bft) SO 135 0 min 0 W/m 9,6 C 13,2 C 1,0 km/h (0 Bft)
07.06.2013 06:30 13,3 C 80 % 1021,5 hPa 0,0 l/m 0,6 km/h (0 Bft) SO 135 0 min 0 W/m 9,9 C 13,3 C 0,6 km/h (0 Bft)
07.06.2013 06:45 13,4 C 80 % 1021,5 hPa 0,0 l/m 2,8 km/h (1 Bft) O-SO 105 0 min 0 W/m 10,0 C 13,4 C 2,8 km/h (1 Bft)
07.06.2013 07:00 13,6 C 81 % 1021,5 hPa 0,0 l/m 0,4 km/h (0 Bft) SO 140 0 min 0 W/m 10,4 C 13,6 C 0,4 km/h (0 Bft)
07.06.2013 07:15 13,8 C 82 % 1021,5 hPa 0,0 l/m 0,4 km/h (0 Bft) O-SO 105 0 min 0 W/m 10,8 C 13,8 C 0,4 km/h (0 Bft)
07.06.2013 07:30 14,0 C 82 % 1021,5 hPa 0,0 l/m 4,1 km/h (1 Bft) S 180 0 min 0 W/m 11,0 C 14,0 C 4,1 km/h (1 Bft)
07.06.2013 07:46 14,2 C 82 % 1021,5 hPa 0,0 l/m 0,3 km/h (0 Bft) S 180 0 min 0 W/m 11,2 C 14,2 C 0,3 km/h (0 Bft)
07.06.2013 08:01 14,4 C 83 % 1021,5 hPa 0,0 l/m 4,3 km/h (1 Bft) O 100 0 min 0 W/m 11,5 C 14,4 C 4,3 km/h (1 Bft)
07.06.2013 08:15 14,6 C 82 % 1021,5 hPa 0,0 l/m 7,1 km/h (2 Bft) SO 125 0 min 0 W/m 11,6 C 14,2 C 7,1 km/h (2 Bft)
07.06.2013 08:30 14,8 C 82 % 1021,5 hPa 0,0 l/m 6,0 km/h (2 Bft) S-SO 150 0 min 0 W/m 11,8 C 14,8 C 6,0 km/h (2 Bft)
07.06.2013 08:46 15,0 C 82 % 1021,5 hPa 0,0 l/m 3,7 km/h (1 Bft) SO 145 0 min 0 W/m 12,0 C 15,0 C 3,7 km/h (1 Bft)
07.06.2013 09:01 15,4 C 81 % 1021,5 hPa 0,0 l/m 7,3 km/h (2 Bft) O-SO 105 0 min 0 W/m 12,2 C 14,9 C 7,3 km/h (2 Bft)
07.06.2013 09:15 15,6 C 81 % 1021,5 hPa 0,0 l/m 9,4 km/h (2 Bft) O 80 0 min 0 W/m 12,3 C 14,1 C 9,4 km/h (2 Bft)
07.06.2013 09:30 15,9 C 80 % 1021,5 hPa 0,0 l/m 7,8 km/h (2 Bft) O-NO 65 0 min 0 W/m 12,5 C 15,1 C 7,8 km/h (2 Bft)
07.06.2013 09:46 16,2 C 80 % 1021,5 hPa 0,0 l/m 9,3 km/h (2 Bft) O-NO 70 0 min 0 W/m 12,7 C 14,7 C 9,3 km/h (2 Bft)
07.06.2013 10:00 16,5 C 78 % 1021,5 hPa 0,0 l/m 8,5 km/h (2 Bft) O 85 0 min 0 W/m 12,6 C 15,4 C 8,5 km/h (2 Bft)
07.06.2013 10:15 17,0 C 77 % 1021,5 hPa 0,0 l/m 8,2 km/h (2 Bft) O 90 0 min 0 W/m 12,9 C 16,1 C 8,2 km/h (2 Bft)
07.06.2013 10:30 17,7 C 75 % 1021,5 hPa 0,0 l/m 8,8 km/h (2 Bft) O-NO 60 0 min 0 W/m 13,2 C 16,6 C 8,8 km/h (2 Bft)
07.06.2013 10:46 18,5 C 74 % 1021,5 hPa 0,0 l/m 9,6 km/h (2 Bft) O-NO 60 0 min 0 W/m 13,8 C 17,1 C 9,6 km/h (2 Bft)
07.06.2013 11:00 19,2 C 71 % 1021,5 hPa 0,0 l/m 10,0 km/h (2 Bft) O 80 0 min 0 W/m 13,8 C 17,8 C 10,0 km/h (2 Bft)
07.06.2013 11:15 19,7 C 68 % 1021,5 hPa 0,0 l/m 15,4 km/h (3 Bft) O-NO 60 0 min 0 W/m 13,6 C 16,8 C 15,4 km/h (3 Bft)
07.06.2013 11:30 20,0 C 68 % 1021,5 hPa 0,0 l/m 13,3 km/h (3 Bft) O-SO 120 0 min 0 W/m 13,9 C 17,7 C 13,3 km/h (3 Bft)
07.06.2013 11:46 20,5 C 66 % 1022,5 hPa 0,0 l/m 11,0 km/h (2 Bft) O-SO 110 0 min 0 W/m 13,9 C 18,9 C 11,0 km/h (2 Bft)
07.06.2013 12:00 20,8 C 64 % 1022,5 hPa 0,0 l/m 20,6 km/h (4 Bft) O-SO 110 0 min 0 W/m 13,7 C 17,1 C 20,6 km/h (4 Bft)
07.06.2013 12:16 21,2 C 64 % 1022,5 hPa 0,0 l/m 13,5 km/h (3 Bft) N 350 0 min 0 W/m 14,1 C 19,0 C 13,5 km/h (3 Bft)
07.06.2013 12:30 21,5 C 64 % 1022,5 hPa 0,0 l/m 14,4 km/h (3 Bft) O 95 0 min 0 W/m 14,4 C 19,2 C 14,4 km/h (3 Bft)
07.06.2013 12:45 21,5 C 62 % 1022,5 hPa 0,0 l/m 14,5 km/h (3 Bft) NO 50 0 min 0 W/m 13,9 C 19,2 C 14,5 km/h (3 Bft)
07.06.2013 13:00 21,6 C 62 % 1022,5 hPa 0,0 l/m 16,8 km/h (3 Bft) O-NO 75 0 min 0 W/m 14,0 C 18,8 C 16,8 km/h (3 Bft)
07.06.2013 13:16 21,8 C 64 % 1022,5 hPa 0,0 l/m 16,9 km/h (3 Bft) O-NO 70 0 min 0 W/m 14,7 C 19,1 C 16,9 km/h (3 Bft)
07.06.2013 13:30 21,8 C 64 % 1022,5 hPa 0,0 l/m 18,4 km/h (3 Bft) NO 50 0 min 0 W/m 14,7 C 18,8 C 18,4 km/h (3 Bft)
07.06.2013 13:45 21,8 C 64 % 1021,5 hPa 0,0 l/m 16,8 km/h (3 Bft) O-NO 65 0 min 0 W/m 14,7 C 19,1 C 16,8 km/h (3 Bft)
07.06.2013 14:00 21,6 C 63 % 1021,5 hPa 0,0 l/m 16,3 km/h (3 Bft) NO 50 0 min 0 W/m 14,2 C 18,9 C 16,3 km/h (3 Bft)
07.06.2013 14:15 21,6 C 62 % 1021,5 hPa 0,0 l/m 17,8 km/h (3 Bft) O 80 0 min 0 W/m 14,0 C 18,6 C 17,8 km/h (3 Bft)
07.06.2013 14:30 21,5 C 62 % 1021,5 hPa 0,0 l/m 18,5 km/h (3 Bft) N-NO 30 0 min 0 W/m 13,9 C 18,4 C 18,5 km/h (3 Bft)
07.06.2013 14:45 21,4 C 61 % 1021,5 hPa 0,0 l/m 17,3 km/h (3 Bft) O-NO 65 0 min 0 W/m 13,6 C 18,5 C 17,3 km/h (3 Bft)
07.06.2013 15:00 21,0 C 63 % 1021,5 hPa 0,0 l/m 20,8 km/h (4 Bft) O 95 0 min 0 W/m 13,7 C 17,4 C 20,8 km/h (4 Bft)
07.06.2013 15:15 20,8 C 63 % 1021,5 hPa 0,0 l/m 21,4 km/h (4 Bft) O 100 0 min 0 W/m 13,5 C 17,0 C 21,4 km/h (4 Bft)
07.06.2013 15:30 21,0 C 63 % 1021,5 hPa 0,0 l/m 18,5 km/h (3 Bft) O 80 0 min 0 W/m 13,7 C 17,8 C 18,5 km/h (3 Bft)
07.06.2013 15:45 20,7 C 66 % 1021,5 hPa 0,0 l/m 19,8 km/h (3 Bft) O 100 0 min 0 W/m 14,1 C 17,1 C 19,8 km/h (3 Bft)
07.06.2013 16:00 20,6 C 66 % 1021,5 hPa 0,0 l/m 23,3 km/h (4 Bft) O 90 0 min 0 W/m 14,0 C 16,4 C 23,3 km/h (4 Bft)
07.06.2013 16:15 20,4 C 67 % 1021,5 hPa 0,0 l/m 22,6 km/h (4 Bft) O-NO 70 0 min 0 W/m 14,1 C 16,3 C 22,6 km/h (4 Bft)
07.06.2013 16:30 20,4 C 67 % 1021,5 hPa 0,0 l/m 21,6 km/h (4 Bft) O-NO 65 0 min 0 W/m 14,1 C 16,4 C 21,6 km/h (4 Bft)
07.06.2013 16:45 20,5 C 66 % 1020,5 hPa 0,0 l/m 19,0 km/h (3 Bft) O-NO 60 0 min 0 W/m 13,9 C 17,0 C 19,0 km/h (3 Bft)
07.06.2013 17:00 20,4 C 67 % 1020,5 hPa 0,0 l/m 21,0 km/h (4 Bft) NO 35 0 min 0 W/m 14,1 C 16,5 C 21,0 km/h (4 Bft)
07.06.2013 17:15 20,4 C 67 % 1021,5 hPa 0,0 l/m 18,8 km/h (3 Bft) NO 35 0 min 0 W/m 14,1 C 16,9 C 18,8 km/h (3 Bft)
07.06.2013 17:30 20,4 C 67 % 1020,5 hPa 0,0 l/m 20,1 km/h (4 Bft) NO 45 0 min 0 W/m 14,1 C 16,7 C 20,1 km/h (4 Bft)
07.06.2013 17:45 20,1 C 67 % 1020,5 hPa 0,0 l/m 18,8 km/h (3 Bft) O 90 0 min 0 W/m 13,8 C 16,6 C 18,8 km/h (3 Bft)
07.06.2013 18:00 19,9 C 67 % 1020,5 hPa 0,0 l/m 18,8 km/h (3 Bft) O-NO 60 0 min 0 W/m 13,6 C 16,3 C 18,8 km/h (3 Bft)
07.06.2013 18:15 19,5 C 69 % 1020,5 hPa 0,0 l/m 21,1 km/h (4 Bft) O 90 0 min 0 W/m 13,7 C 15,4 C 21,1 km/h (4 Bft)
07.06.2013 18:30 19,1 C 70 % 1020,5 hPa 0,0 l/m 21,9 km/h (4 Bft) O-NO 60 0 min 0 W/m 13,5 C 14,7 C 21,9 km/h (4 Bft)
07.06.2013 18:45 18,8 C 70 % 1020,5 hPa 0,0 l/m 23,6 km/h (4 Bft) NO 55 0 min 0 W/m 13,2 C 14,0 C 23,6 km/h (4 Bft)
07.06.2013 19:00 18,5 C 70 % 1020,5 hPa 0,0 l/m 21,0 km/h (4 Bft) O-SO 115 0 min 0 W/m 12,9 C 14,1 C 21,0 km/h (4 Bft)
07.06.2013 19:15 18,0 C 72 % 1020,5 hPa 0,0 l/m 22,1 km/h (4 Bft) O 80 0 min 0 W/m 12,9 C 13,2 C 22,1 km/h (4 Bft)
07.06.2013 19:30 17,8 C 73 % 1020,5 hPa 0,0 l/m 21,9 km/h (4 Bft) O-SO 110 0 min 0 W/m 12,9 C 13,0 C 21,9 km/h (4 Bft)
07.06.2013 19:45 17,6 C 74 % 1020,5 hPa 0,0 l/m 19,8 km/h (3 Bft) O-NO 70 0 min 0 W/m 12,9 C 13,1 C 19,8 km/h (3 Bft)
07.06.2013 20:00 17,3 C 75 % 1020,5 hPa 0,0 l/m 21,2 km/h (4 Bft) O-NO 70 0 min 0 W/m 12,8 C 12,5 C 21,2 km/h (4 Bft)
07.06.2013 20:15 17,1 C 76 % 1020,5 hPa 0,0 l/m 19,5 km/h (3 Bft) O 90 0 min 0 W/m 12,8 C 12,6 C 19,5 km/h (3 Bft)
07.06.2013 20:30 16,8 C 77 % 1020,5 hPa 0,0 l/m 24,3 km/h (4 Bft) O-SO 120 0 min 0 W/m 12,7 C 11,2 C 24,3 km/h (4 Bft)
07.06.2013 20:45 16,6 C 78 % 1020,5 hPa 0,0 l/m 26,2 km/h (4 Bft) O-SO 110 0 min 0 W/m 12,7 C 10,6 C 26,2 km/h (4 Bft)
07.06.2013 21:00 16,3 C 78 % 1020,5 hPa 0,0 l/m 21,3 km/h (4 Bft) O 100 0 min 0 W/m 12,5 C 11,1 C 21,3 km/h (4 Bft)
07.06.2013 21:15 16,2 C 78 % 1020,5 hPa 0,0 l/m 20,1 km/h (4 Bft) O-SO 115 0 min 0 W/m 12,4 C 11,3 C 20,1 km/h (4 Bft)
07.06.2013 21:30 16,1 C 78 % 1020,5 hPa 0,0 l/m 17,9 km/h (3 Bft) O-NO 65 0 min 0 W/m 12,3 C 11,7 C 17,9 km/h (3 Bft)
07.06.2013 21:45 15,9 C 77 % 1020,5 hPa 0,0 l/m 20,3 km/h (4 Bft) O 90 0 min 0 W/m 11,9 C 10,8 C 20,3 km/h (4 Bft)
07.06.2013 22:00 15,7 C 77 % 1020,5 hPa 0,0 l/m 17,2 km/h (3 Bft) O 80 0 min 0 W/m 11,7 C 11,4 C 17,2 km/h (3 Bft)
07.06.2013 22:15 15,6 C 76 % 1020,5 hPa 0,0 l/m 17,9 km/h (3 Bft) NO 50 0 min 0 W/m 11,4 C 11,1 C 17,9 km/h (3 Bft)
07.06.2013 22:30 15,4 C 76 % 1020,5 hPa 0,0 l/m 15,6 km/h (3 Bft) O-NO 70 0 min 0 W/m 11,2 C 11,5 C 15,6 km/h (3 Bft)
07.06.2013 22:45 15,3 C 76 % 1020,5 hPa 0,0 l/m 16,3 km/h (3 Bft) O 95 0 min 0 W/m 11,1 C 11,1 C 16,3 km/h (3 Bft)
07.06.2013 23:00 15,2 C 76 % 1020,5 hPa 0,0 l/m 16,1 km/h (3 Bft) O-NO 65 0 min 0 W/m 11,0 C 11,1 C 16,1 km/h (3 Bft)
07.06.2013 23:15 15,0 C 76 % 1020,5 hPa 0,0 l/m 17,3 km/h (3 Bft) O 85 0 min 0 W/m 10,8 C 10,5 C 17,3 km/h (3 Bft)
07.06.2013 23:30 15,0 C 76 % 1020,5 hPa 0,0 l/m 18,0 km/h (3 Bft) O 85 0 min 0 W/m 10,8 C 10,3 C 18,0 km/h (3 Bft)
07.06.2013 23:45 15,0 C 76 % 1020,5 hPa 0,0 l/m 22,5 km/h (4 Bft) O 85 0 min 0 W/m 10,8 C 9,1 C 22,5 km/h (4 Bft)
_ Min-Zeit 06:00 14:45 16:45 - 04:45 - - - - 05:30 23:45 04:45
Minimum _ 12,9 C 61 % 1020,5 hPa - 0,0 km/h (0 Bft) - - - - 8,9 C 9,1 C 0,0 km/h (0 Bft)
_ Max-Zeit 13:16 08:01 11:46 00:00 20:45 - - 00:00 00:00 13:16 12:30 20:45
Maximum _ 21,8 C 83 % 1022,5 hPa 0,0 l/m 26,2 km/h
O-SO (4 Bft)
- - 0 min 0 W/m 14,7 C 19,2 C 26,2 km/h
O-SO (4 Bft)
Durchschnitt _ 17,0 C 73 % 1021,3 hPa #0,0 l/m 12,6 km/h (2 Bft) O - #0 min. 0 W/m 12,0 C 14,7 C 12,6 km/h (2 Bft)
copyright by Holger Just